CheckWX is a tool to help pilots better visualize weather data.  It is not intended as a substitute for an official pre-flight weather briefing.

07:42:28 UTC

UAKK METAR
Sary-Arka Airport
Karaganda, Kazakhstan
Current

12 mins ago

UAKK 210730Z 10005MPS 9999 SCT024 M03/M09 Q1033 R05/0///70 NOSIG RMK QFE727/0970
Observed
Oct-21 @ 07:30 UTC
Wind
  • 100° at 10 KTS
Visibility
10,000+ meters
Flight Rules
VFR
Cloud Levels
  • Scattered at 2,400' AGL
Temperature
-3°C / 27°F
Dewpoint
-9°C / 16°F
Humidity
64%
Altimeter
30.5" Hg
Pressure
1032.92 hPa
Previous

42 mins ago

UAKK 210700Z 08006MPS 9999 SCT024 M03/M09 Q1034 R05/0///70 NOSIG RMK QFE727/0970
Observed
Oct-21 @ 07:00 UTC
Wind
  • 080° at 12 KTS
Visibility
10,000+ meters
Flight Rules
VFR
Cloud Levels
  • Scattered at 2,400' AGL
Temperature
-3°C / 27°F
Dewpoint
-9°C / 16°F
Humidity
64%
Altimeter
30.53" Hg
Pressure
1033.92 hPa
Previous

1 hour ago

UAKK 210630Z 08006MPS 9999 BKN020 M04/M09 Q1034 R05/0///70 NOSIG RMK QFE727/0970
Observed
Oct-21 @ 06:30 UTC
Wind
  • 080° at 12 KTS
Visibility
10,000+ meters
Flight Rules
MVFR
Cloud Levels
  • Broken at 2,000' AGL
Temperature
-4°C / 25°F
Dewpoint
-9°C / 16°F
Humidity
69%
Altimeter
30.53" Hg
Pressure
1033.92 hPa